Athens, Wisconsin
Current Conditions -  °F | °C
As of 5:35 PM on Saturday 22 Nov 2014 (Local Time) from KMDZ Reporting Station
Moderate Fog Moderate Fog  
Wind Chill: 27°   Ceiling: 200
Heat Index: 33°   Visibility: 0.25mi
Dew Point: 33°   Wind: 6mph
Humidity: 99%   Direction: 170°S
Pressure: 29.71"   Gusts: NA
Location:  45.03°N, 90.07°W
Report Text: KMDZ 222335Z AUTO 17005KT 1/4SM FG OVC002 01/00 A2971 RMK AO2 T00050003
Loading
Personal Weather Stations






























Interactive Weather Map New forecast layout! Learn more

10-Day Weather Forecast

Advertisements
Track Severe Weather on mobile